Millarton, North Dakota
Current Conditions -  °F | °C
As of 6:56 PM on Wednesday 22 Oct 2014 (Local Time) from KJMS Reporting Station
Clear Clear  
Wind Chill: 52°   Ceiling: Unl
Heat Index: 52°   Visibility: 10mi
Dew Point: 49°   Wind: 8mph
Humidity: 89%   Direction: 180°S
Pressure: 29.85"   Gusts: NA
Location:  46.6526°N, 98.6214°W
Report Text: KJMS 222356Z AUTO 18007KT 10SM CLR 11/09 A2985 RMK AO2 SLP113 60009 T01110094 10144 20111 51005
Loading
Personal Weather Stations






























Interactive Weather Map
Tropical Storm Tracking
New forecast layout! Learn more

10-Day Weather Forecast

Advertisements
Track Severe Weather on mobile